createdAt,value
2018-06-02T01:15:01.093Z,0.1
2018-06-02T01:17:01.128Z,0.2
2018-06-02T01:18:01.113Z,0.3
2018-06-02T01:20:01.236Z,0.4
2018-06-02T01:21:01.094Z,0.5
2018-06-02T01:23:01.128Z,0.6
2018-06-02T01:24:01.099Z,0.7
2018-06-02T01:26:01.298Z,0.8
2018-06-02T01:27:01.123Z,0.9
2018-06-02T01:29:01.094Z,1.0
2018-06-02T01:30:01.098Z,1.0
2018-06-02T01:32:01.267Z,1.1
2018-06-02T01:34:01.100Z,1.2
2018-06-02T01:35:01.063Z,1.3
2018-06-02T01:37:01.347Z,1.4
2018-06-02T01:38:01.103Z,1.5
2018-06-02T01:39:01.106Z,1.6
2018-06-02T01:40:01.095Z,1.7
2018-06-02T01:41:01.095Z,1.9
2018-06-02T01:42:01.403Z,2.1
2018-06-02T01:43:01.097Z,2.3
2018-06-02T01:44:01.097Z,2.5
2018-06-02T01:45:01.100Z,2.7
2018-06-02T01:46:01.071Z,3.0
2018-06-02T01:47:01.289Z,3.3
2018-06-02T01:48:01.068Z,3.5
2018-06-02T01:49:01.101Z,3.9
2018-06-02T01:50:01.108Z,4.2
2018-06-02T01:51:01.103Z,4.6
2018-06-02T01:52:01.285Z,5.1
2018-06-02T01:53:01.067Z,5.6
2018-06-02T01:54:01.100Z,6.1
2018-06-02T01:55:01.103Z,6.7
2018-06-02T01:56:01.105Z,7.4
2018-06-02T01:57:01.284Z,8.1
2018-06-02T01:58:01.103Z,8.9
2018-06-02T01:59:01.109Z,9.9
2018-06-02T02:00:01.103Z,10.9
2018-06-02T02:02:01.261Z,12.2
2018-06-02T02:03:01.058Z,13.7
2018-06-02T02:04:01.089Z,15.3
2018-06-02T02:05:01.057Z,17.1
2018-06-02T02:06:01.124Z,19.2
2018-06-02T02:07:01.226Z,21.5
2018-06-02T02:08:01.089Z,24.1
2018-06-02T02:09:01.091Z,27.0
2018-06-02T02:10:01.090Z,30.3
2018-06-02T02:11:01.117Z,33.9
2018-06-02T02:12:01.233Z,38.1
2018-06-02T02:13:01.057Z,42.6
2018-06-02T02:14:01.057Z,47.7
2018-06-02T02:15:01.115Z,53.5
2018-06-02T02:16:01.062Z,59.9
2018-06-02T02:17:01.276Z,66.8
2018-06-02T02:18:01.093Z,74.5
2018-06-02T02:19:01.093Z,83.2
2018-06-02T02:20:01.127Z,92.9
2018-06-02T02:21:01.094Z,103.9
2018-06-02T02:22:01.235Z,116.1
2018-06-02T02:23:01.094Z,129.9
2018-06-02T02:24:01.101Z,145.2
2018-06-02T02:25:01.120Z,162.2
2018-06-02T02:26:01.097Z,180.9
2018-06-02T02:27:01.236Z,201.6
2018-06-02T02:28:01.093Z,224.3
2018-06-02T02:29:01.095Z,249.3
2018-06-02T02:30:01.119Z,276.5
2018-06-02T02:31:01.092Z,306.4
2018-06-02T02:32:01.240Z,338.9
2018-06-02T02:33:01.100Z,374.3
2018-06-02T02:34:01.094Z,412.7
2018-06-02T02:35:01.121Z,454.1
2018-06-02T02:36:01.100Z,498.7
2018-06-02T02:37:01.289Z,546.5
2018-06-02T02:38:01.096Z,597.7
2018-06-02T02:39:01.095Z,652.4
2018-06-02T02:40:01.122Z,710.8
2018-06-02T02:41:01.098Z,773.2
2018-06-02T02:42:01.242Z,839.6
2018-06-02T02:43:01.100Z,910.3
2018-06-02T02:44:01.061Z,985.3
2018-06-02T02:45:01.121Z,1064.8
2018-06-02T02:46:01.097Z,1148.7
2018-06-02T02:47:01.238Z,1237.1
2018-06-02T02:48:01.099Z,1330.3
2018-06-02T02:49:01.124Z,1428.5
2018-06-02T02:50:01.103Z,1531.7
2018-06-02T02:51:01.094Z,1640.2
2018-06-02T02:52:01.240Z,1753.9
2018-06-02T02:53:01.108Z,1872.7
2018-06-02T02:54:01.129Z,1997.1
2018-06-02T02:55:01.065Z,2127.5
2018-06-02T02:56:01.069Z,2264.2
2018-06-02T02:57:01.243Z,2407.7
2018-06-02T02:58:01.100Z,2558.1
2018-06-02T02:59:01.104Z,2715.9
2018-06-02T03:00:01.102Z,2881.1
2018-06-02T03:01:01.098Z,3053.8
2018-06-02T03:02:01.246Z,3234.3
2018-06-02T03:03:01.099Z,3422.4
2018-06-02T03:04:01.099Z,3618.4
2018-06-02T03:05:01.069Z,3822.4
2018-06-02T03:06:01.100Z,4034.5
2018-06-02T03:07:01.255Z,4255.2
2018-06-02T03:08:01.099Z,4484.3
2018-06-02T03:09:01.104Z,4721.5
2018-06-02T03:10:01.105Z,4966.3
2018-06-02T03:11:01.102Z,5218.5
2018-06-02T03:12:01.243Z,5477.8
2018-06-02T03:13:01.107Z,5743.7
2018-06-02T03:15:01.055Z,6037.7
2018-06-02T03:16:01.058Z,6338.9
2018-06-02T03:17:01.259Z,6646.4
2018-06-02T03:18:01.085Z,6960.1
2018-06-02T03:19:01.086Z,7279.5
2018-06-02T03:20:01.095Z,7604.3
2018-06-02T03:21:01.087Z,7934.2
2018-06-02T03:22:01.230Z,8268.2
2018-06-02T03:23:01.113Z,8606.4
2018-06-02T03:24:01.056Z,8949.3
2018-06-02T03:25:01.093Z,9296.9
2018-06-02T03:26:01.055Z,9649.1
2018-06-02T03:27:01.233Z,10006.5
2018-06-02T03:28:01.122Z,10367.8
2018-06-02T03:29:01.060Z,10733.7
2018-06-02T03:30:01.138Z,11082.8
2018-06-02T03:31:01.093Z,11436.6
2018-06-02T03:32:01.232Z,11796.2
2018-06-02T03:33:01.091Z,12161.3
2018-06-02T03:34:01.087Z,12532.3
2018-06-02T03:35:01.121Z,12908.7
2018-06-02T03:36:01.091Z,13290.4
2018-06-02T03:37:01.233Z,13677.5
2018-06-02T03:38:01.054Z,14069.1
2018-06-02T03:39:01.054Z,14463.5
2018-06-02T03:40:01.103Z,14859.9
2018-06-02T03:41:01.087Z,15258.3
2018-06-02T03:42:01.239Z,15656.0
2018-06-02T03:43:01.127Z,16052.6
2018-06-02T03:44:01.099Z,16449.3
2018-06-02T03:45:01.100Z,16847.6
2018-06-02T03:46:01.098Z,17246.3
2018-06-02T03:47:01.242Z,17645.7
2018-06-02T03:48:01.125Z,18046.9
2018-06-02T03:49:01.092Z,18450.4
2018-06-02T03:50:01.096Z,18856.9
2018-06-02T03:51:01.093Z,19266.1
2018-06-02T03:52:01.264Z,19678.2
2018-06-02T03:53:01.096Z,20092.4
2018-06-02T03:54:01.099Z,20510.5
2018-06-02T03:55:01.066Z,20932.9
2018-06-02T03:56:01.100Z,21358.3
2018-06-02T03:57:01.277Z,21789.3
2018-06-02T03:58:01.097Z,22227.4
2018-06-02T03:59:01.097Z,22668.9
2018-06-02T04:00:01.101Z,23110.7
2018-06-02T04:01:01.099Z,23552.6
2018-06-02T04:02:01.274Z,23994.5
2018-06-02T04:03:01.102Z,24437.1
2018-06-02T04:04:01.100Z,24880.7
2018-06-02T04:05:01.098Z,25324.1
2018-06-02T04:06:01.110Z,25767.1
2018-06-02T04:07:01.276Z,26209.0
2018-06-02T04:08:01.116Z,26651.5
2018-06-02T04:09:01.113Z,27092.6
2018-06-02T04:10:01.108Z,27534.1
2018-06-02T04:11:01.108Z,27976.9
2018-06-02T04:12:01.279Z,28419.1
2018-06-02T04:13:01.104Z,28861.0
2018-06-02T04:15:01.088Z,29346.2
2018-06-02T04:16:01.096Z,29840.3
2018-06-02T04:17:01.337Z,30341.6
2018-06-02T04:18:01.059Z,30851.1
2018-06-02T04:19:01.092Z,31368.4
2018-06-02T04:20:01.091Z,31889.5
2018-06-02T04:21:01.089Z,32415.6
2018-06-02T04:22:01.319Z,32945.6
2018-06-02T04:23:01.092Z,33481.7
2018-06-02T04:24:01.093Z,34024.5
2018-06-02T04:25:01.091Z,34572.9
2018-06-02T04:26:01.091Z,35124.1
2018-06-02T04:27:01.266Z,35678.3
2018-06-02T04:28:01.091Z,36232.6
2018-06-02T04:29:01.093Z,36785.2
2018-06-02T04:30:01.110Z,37289.5
2018-06-02T04:31:01.061Z,37777.0
2018-06-02T04:32:01.267Z,38248.9
2018-06-02T04:33:01.103Z,38703.5
2018-06-02T04:34:01.100Z,39135.5
2018-06-02T04:35:01.094Z,39544.5
2018-06-02T04:36:01.097Z,39928.3
2018-06-02T04:37:01.287Z,40286.5
2018-06-02T04:38:01.097Z,40614.8
2018-06-02T04:39:01.096Z,40909.9
2018-06-02T04:40:01.097Z,41173.4
2018-06-02T04:41:01.122Z,41407.4
2018-06-02T04:42:01.235Z,41609.5
2018-06-02T04:43:01.096Z,41784.3
2018-06-02T04:44:01.099Z,41937.4
2018-06-02T04:45:01.094Z,42074.2
2018-06-02T04:46:01.125Z,42201.9
2018-06-02T04:47:01.238Z,42326.9
2018-06-02T04:48:01.101Z,42478.3
2018-06-02T04:49:01.102Z,42685.9
2018-06-02T04:50:01.097Z,42914.4
2018-06-02T04:51:01.129Z,43069.6
2018-06-02T04:52:01.242Z,43347.1
2018-06-02T04:53:01.063Z,43881.5
2018-06-02T04:54:01.071Z,44550.6
2018-06-02T04:55:01.098Z,45264.7
2018-06-02T04:56:01.126Z,46009.7
2018-06-02T04:57:01.254Z,46736.7
2018-06-02T04:58:01.073Z,47417.4
2018-06-02T04:59:01.098Z,48059.6
2018-06-02T05:00:01.110Z,48670.0
2018-06-02T05:01:01.126Z,49304.5
2018-06-02T05:02:01.308Z,49928.5
2018-06-02T05:03:01.101Z,50487.5
2018-06-02T05:04:01.104Z,50920.8
2018-06-02T05:05:01.138Z,51251.9
2018-06-02T05:06:01.122Z,51604.9
2018-06-02T05:07:01.255Z,51829.3
2018-06-02T05:08:01.138Z,51803.8
2018-06-02T05:09:01.104Z,51665.4
2018-06-02T05:10:01.105Z,51520.5
2018-06-02T05:11:01.110Z,51400.9
2018-06-02T05:12:01.252Z,51351.1
2018-06-02T05:13:01.138Z,51363.1
2018-06-02T05:14:01.106Z,51437.3
2018-06-02T05:15:01.108Z,51590.7
2018-06-02T05:16:01.104Z,51805.3
2018-06-02T05:17:01.261Z,52141.4
2018-06-02T05:18:01.144Z,52577.8
2018-06-02T05:19:01.110Z,53168.5
2018-06-02T05:21:01.091Z,54031.1
2018-06-02T05:22:01.337Z,55009.8
2018-06-02T05:23:01.090Z,56064.3
2018-06-02T05:24:01.119Z,57106.2
2018-06-02T05:25:01.094Z,58122.7
2018-06-02T05:26:01.093Z,59098.1
2018-06-02T05:27:01.364Z,60013.6
2018-06-02T05:28:01.095Z,60875.4
2018-06-02T05:29:01.139Z,61720.0
2018-06-02T05:30:01.093Z,62534.1
2018-06-02T05:31:01.099Z,63293.6
2018-06-02T05:32:01.241Z,63957.1
2018-06-02T05:33:01.095Z,64493.3
2018-06-02T05:34:01.125Z,64948.7
2018-06-02T05:35:01.099Z,65304.2
2018-06-02T05:36:01.096Z,65457.0
2018-06-02T05:37:01.245Z,65535.0
2018-06-02T05:45:01.272Z,65535.0
2018-06-02T06:00:01.339Z,65535.0
2018-06-02T06:15:01.122Z,65535.0
2018-06-02T06:30:01.139Z,65535.0
2018-06-02T06:45:01.103Z,65535.0
2018-06-02T07:00:01.115Z,65535.0
2018-06-02T07:15:01.064Z,65535.0
2018-06-02T07:30:01.145Z,65535.0
2018-06-02T07:45:01.101Z,65535.0
2018-06-02T08:00:01.097Z,65535.0
2018-06-02T08:15:01.415Z,65535.0
2018-06-02T08:30:01.128Z,65535.0
2018-06-02T08:45:01.135Z,65535.0
2018-06-02T09:00:01.093Z,65535.0
2018-06-02T09:15:01.126Z,65535.0
2018-06-02T09:30:01.129Z,65535.0
2018-06-02T09:45:01.142Z,65535.0
2018-06-02T10:00:01.058Z,65535.0
2018-06-02T10:15:01.095Z,65535.0
2018-06-02T10:30:01.096Z,65535.0
2018-06-02T10:45:01.072Z,65535.0
2018-06-02T11:00:01.100Z,65535.0
2018-06-02T11:15:01.159Z,65535.0
2018-06-02T11:30:01.476Z,65535.0
2018-06-02T11:45:01.414Z,65535.0
2018-06-02T12:00:01.355Z,65535.0
2018-06-02T12:15:01.130Z,65535.0
2018-06-02T12:30:01.675Z,65535.0
2018-06-02T12:45:01.272Z,65535.0
2018-06-02T13:00:01.103Z,65535.0
2018-06-02T13:15:01.363Z,65535.0
2018-06-02T13:30:01.403Z,65535.0
2018-06-02T13:45:01.382Z,65535.0
2018-06-02T14:00:01.116Z,65535.0
2018-06-02T14:15:01.119Z,65535.0
2018-06-02T14:30:01.131Z,65535.0
2018-06-02T14:45:01.107Z,65535.0
2018-06-02T15:00:01.124Z,65535.0
2018-06-02T15:15:01.095Z,65535.0
2018-06-02T15:30:01.102Z,65535.0
2018-06-02T15:45:01.100Z,65535.0
2018-06-02T16:00:01.128Z,65535.0
2018-06-02T16:15:01.375Z,65535.0
2018-06-02T16:30:01.140Z,65535.0
2018-06-02T16:45:01.131Z,65535.0
2018-06-02T17:00:01.124Z,65535.0
2018-06-02T17:08:01.106Z,65382.8
2018-06-02T17:10:01.119Z,65181.3
2018-06-02T17:11:01.235Z,64957.1
2018-06-02T17:12:01.057Z,64666.9
2018-06-02T17:13:01.053Z,64296.5
2018-06-02T17:14:01.069Z,63871.9
2018-06-02T17:15:01.113Z,63389.5
2018-06-02T17:16:01.276Z,62816.4
2018-06-02T17:17:01.088Z,62139.5
2018-06-02T17:18:01.064Z,61343.1
2018-06-02T17:19:01.093Z,60466.7
2018-06-02T17:20:01.286Z,59548.6
2018-06-02T17:21:01.232Z,58639.3
2018-06-02T17:22:01.093Z,57779.5
2018-06-02T17:23:01.091Z,56971.9
2018-06-02T17:24:01.061Z,56357.4
2018-06-02T17:25:01.143Z,55789.5
2018-06-02T17:26:01.247Z,55172.1
2018-06-02T17:27:01.094Z,54494.7
2018-06-02T17:28:01.093Z,53759.1
2018-06-02T17:29:01.069Z,52992.3
2018-06-02T17:30:01.095Z,52267.3
2018-06-02T17:31:01.328Z,51694.6
2018-06-02T17:32:01.061Z,51332.5
2018-06-02T17:33:01.096Z,51181.5
2018-06-02T17:34:01.098Z,51149.1
2018-06-02T17:35:01.101Z,51121.5
2018-06-02T17:36:01.270Z,51000.7
2018-06-02T17:37:01.059Z,50737.5
2018-06-02T17:38:01.062Z,50335.5
2018-06-02T17:39:01.094Z,49825.0
2018-06-02T17:40:01.098Z,49268.3
2018-06-02T17:41:01.268Z,48756.8
2018-06-02T17:42:01.060Z,48353.1
2018-06-02T17:43:01.097Z,48080.3
2018-06-02T17:44:01.095Z,47879.1
2018-06-02T17:45:01.094Z,47673.3
2018-06-02T17:46:01.269Z,47396.1
2018-06-02T17:47:01.097Z,47009.2
2018-06-02T17:48:01.096Z,46533.5
2018-06-02T17:49:01.098Z,46027.4
2018-06-02T17:50:01.098Z,45556.9
2018-06-02T17:51:01.271Z,45169.5
2018-06-02T17:52:01.119Z,44866.5
2018-06-02T17:53:01.066Z,44625.9
2018-06-02T17:54:01.093Z,44398.6
2018-06-02T17:55:01.094Z,44106.9
2018-06-02T17:56:01.239Z,43704.9
2018-06-02T17:57:01.121Z,43259.0
2018-06-02T17:58:01.061Z,42821.2
2018-06-02T17:59:01.096Z,42437.3
2018-06-02T18:00:01.094Z,42129.9
2018-06-02T18:01:01.240Z,41878.1
2018-06-02T18:02:01.127Z,41671.4
2018-06-02T18:03:01.100Z,41482.1
2018-06-02T18:04:01.094Z,41290.4
2018-06-02T18:05:01.067Z,41100.6
2018-06-02T18:06:01.289Z,40912.2
2018-06-02T18:07:01.101Z,40727.1
2018-06-02T18:08:01.109Z,40578.6
2018-06-02T18:09:01.100Z,40488.5
2018-06-02T18:11:01.251Z,40468.5
2018-06-02T18:12:01.107Z,40547.5
2018-06-02T18:13:01.086Z,40651.5
2018-06-02T18:14:01.085Z,40719.6
2018-06-02T18:15:01.051Z,40705.3
2018-06-02T18:16:01.250Z,40596.2
2018-06-02T18:17:01.119Z,40413.3
2018-06-02T18:18:01.080Z,40170.9
2018-06-02T18:19:01.083Z,39876.5
2018-06-02T18:20:01.089Z,39552.2
2018-06-02T18:21:01.226Z,39210.5
2018-06-02T18:22:01.052Z,38858.4
2018-06-02T18:23:01.084Z,38493.8
2018-06-02T18:24:01.082Z,38089.7
2018-06-02T18:25:01.085Z,37650.9
2018-06-02T18:26:01.228Z,37231.9
2018-06-02T18:27:01.177Z,36822.9
2018-06-02T18:28:01.082Z,36433.2
2018-06-02T18:29:01.096Z,36063.7
2018-06-02T18:30:01.092Z,35727.2
2018-06-02T18:31:01.232Z,35423.0
2018-06-02T18:32:01.096Z,35141.9
2018-06-02T18:33:01.090Z,34867.3
2018-06-02T18:34:01.088Z,34610.5
2018-06-02T18:35:01.089Z,34360.7
2018-06-02T18:36:01.236Z,34101.9
2018-06-02T18:37:01.125Z,33815.5
2018-06-02T18:38:01.092Z,33501.1
2018-06-02T18:39:01.099Z,33167.0
2018-06-02T18:40:01.057Z,32837.9
2018-06-02T18:41:01.295Z,32482.5
2018-06-02T18:42:01.125Z,32107.4
2018-06-02T18:43:01.092Z,31710.1
2018-06-02T18:44:01.055Z,31280.9
2018-06-02T18:45:01.087Z,30812.9
2018-06-02T18:46:01.237Z,30302.6
2018-06-02T18:47:01.122Z,29749.3
2018-06-02T18:48:01.088Z,29171.3
2018-06-02T18:49:01.057Z,28581.0
2018-06-02T18:50:01.062Z,27987.7
2018-06-02T18:51:01.268Z,27398.1
2018-06-02T18:52:01.133Z,26816.9
2018-06-02T18:53:01.093Z,26244.7
2018-06-02T18:54:01.093Z,25673.0
2018-06-02T18:55:01.092Z,25072.7
2018-06-02T18:56:01.247Z,24467.3
2018-06-02T18:57:01.117Z,23857.9
2018-06-02T18:58:01.093Z,23243.3
2018-06-02T18:59:01.096Z,22638.9
2018-06-02T19:00:01.097Z,22050.7
2018-06-02T19:01:01.276Z,21482.2
2018-06-02T19:02:01.124Z,20932.7
2018-06-02T19:03:01.099Z,20392.9
2018-06-02T19:05:01.085Z,19822.3
2018-06-02T19:06:01.265Z,19239.6
2018-06-02T19:07:01.085Z,18646.6
2018-06-02T19:08:01.082Z,18050.1
2018-06-02T19:09:01.084Z,17459.5
2018-06-02T19:10:01.082Z,16885.8
2018-06-02T19:11:01.258Z,16337.1
2018-06-02T19:12:01.079Z,15816.3
2018-06-02T19:13:01.084Z,15321.4
2018-06-02T19:14:01.080Z,14848.3
2018-06-02T19:15:01.050Z,14387.6
2018-06-02T19:16:01.286Z,13932.6
2018-06-02T19:17:01.086Z,13480.9
2018-06-02T19:18:01.081Z,13031.1
2018-06-02T19:19:01.051Z,12582.2
2018-06-02T19:20:01.083Z,12167.3
2018-06-02T19:21:01.260Z,11762.6
2018-06-02T19:22:01.088Z,11368.4
2018-06-02T19:23:01.096Z,10985.1
2018-06-02T19:24:01.091Z,10611.6
2018-06-02T19:25:01.085Z,10247.0
2018-06-02T19:26:01.262Z,9890.7
2018-06-02T19:27:01.093Z,9541.0
2018-06-02T19:28:01.086Z,9198.1
2018-06-02T19:29:01.116Z,8857.5
2018-06-02T19:30:01.058Z,8521.7
2018-06-02T19:31:01.233Z,8192.3
2018-06-02T19:32:01.058Z,7868.9
2018-06-02T19:33:01.066Z,7553.9
2018-06-02T19:34:01.116Z,7246.5
2018-06-02T19:35:01.057Z,6945.9
2018-06-02T19:36:01.233Z,6650.5
2018-06-02T19:37:01.095Z,6360.5
2018-06-02T19:38:01.095Z,6075.6
2018-06-02T19:39:01.138Z,5795.5
2018-06-02T19:40:01.072Z,5522.5
2018-06-02T19:41:01.295Z,5257.0
2018-06-02T19:42:01.093Z,4999.7
2018-06-02T19:43:01.093Z,4749.4
2018-06-02T19:44:01.137Z,4510.9
2018-06-02T19:45:01.094Z,4281.3
2018-06-02T19:46:01.245Z,4061.7
2018-06-02T19:47:01.101Z,3852.0
2018-06-02T19:48:01.103Z,3651.7
2018-06-02T19:49:01.132Z,3458.1
2018-06-02T19:50:01.100Z,3272.3
2018-06-02T19:52:01.082Z,3085.1
2018-06-02T19:53:01.085Z,2905.9
2018-06-02T19:54:01.082Z,2735.4
2018-06-02T19:55:01.109Z,2573.9
2018-06-02T19:56:01.229Z,2419.4
2018-06-02T19:57:01.052Z,2271.4
2018-06-02T19:58:01.081Z,2128.9
2018-06-02T19:59:01.081Z,1992.3
2018-06-02T20:00:01.125Z,1859.3
2018-06-02T20:01:01.228Z,1731.5
2018-06-02T20:02:01.090Z,1607.9
2018-06-02T20:03:01.088Z,1489.3
2018-06-02T20:04:01.091Z,1376.1
2018-06-02T20:05:01.111Z,1269.5
2018-06-02T20:06:01.289Z,1168.4
2018-06-02T20:07:01.106Z,1081.6
2018-06-02T20:08:01.086Z,1000.1
2018-06-02T20:09:01.092Z,923.9
2018-06-02T20:10:01.115Z,851.6
2018-06-02T20:11:01.237Z,783.0
2018-06-02T20:12:01.095Z,718.5
2018-06-02T20:13:01.091Z,658.5
2018-06-02T20:14:01.090Z,602.8
2018-06-02T20:15:01.128Z,550.8
2018-06-02T20:16:01.286Z,503.3
2018-06-02T20:17:01.096Z,459.6
2018-06-02T20:18:01.093Z,419.3
2018-06-02T20:19:01.099Z,381.7
2018-06-02T20:20:01.144Z,346.6
2018-06-02T20:21:01.240Z,314.0
2018-06-02T20:22:01.148Z,284.0
2018-06-02T20:23:01.095Z,256.5
2018-06-02T20:24:01.150Z,231.4
2018-06-02T20:25:01.136Z,208.7
2018-06-02T20:26:01.242Z,188.3
2018-06-02T20:27:01.070Z,169.9
2018-06-02T20:28:01.095Z,153.2
2018-06-02T20:29:01.097Z,138.1
2018-06-02T20:30:01.128Z,124.5
2018-06-02T20:31:01.240Z,111.9
2018-06-02T20:32:01.095Z,100.6
2018-06-02T20:33:01.098Z,90.5
2018-06-02T20:34:01.099Z,81.3
2018-06-02T20:35:01.130Z,73.2
2018-06-02T20:36:01.237Z,65.8
2018-06-02T20:37:01.067Z,59.1
2018-06-02T20:38:01.099Z,53.0
2018-06-02T20:39:01.096Z,47.5
2018-06-02T20:40:01.150Z,42.7
2018-06-02T20:41:01.246Z,38.3
2018-06-02T20:42:01.122Z,34.4
2018-06-02T20:43:01.097Z,30.9
2018-06-02T20:44:01.099Z,27.7
2018-06-02T20:45:01.106Z,24.9
2018-06-02T20:46:01.239Z,22.4
2018-06-02T20:47:01.127Z,20.1
2018-06-02T20:48:01.102Z,18.1
2018-06-02T20:49:01.105Z,16.3
2018-06-02T20:50:01.101Z,14.7
2018-06-02T20:51:01.270Z,13.3
2018-06-02T20:52:01.200Z,12.0
2018-06-02T20:53:01.098Z,10.9
2018-06-02T20:54:01.071Z,9.9
2018-06-02T20:55:01.102Z,8.9
2018-06-02T20:56:01.246Z,8.1
2018-06-02T20:57:01.136Z,7.3
2018-06-02T20:58:01.105Z,6.7
2018-06-02T20:59:01.104Z,6.1
2018-06-02T21:00:01.072Z,5.5
2018-06-02T21:01:01.250Z,5.0
2018-06-02T21:02:01.134Z,4.5
2018-06-02T21:03:01.114Z,4.1
2018-06-02T21:04:01.105Z,3.8
2018-06-02T21:05:01.112Z,3.5
2018-06-02T21:06:01.256Z,3.1
2018-06-02T21:07:01.137Z,2.8
2018-06-02T21:08:01.107Z,2.5
2018-06-02T21:10:01.091Z,2.3
2018-06-02T21:11:01.305Z,2.1
2018-06-02T21:12:01.114Z,1.9
2018-06-02T21:13:01.088Z,1.7
2018-06-02T21:14:01.093Z,1.6
2018-06-02T21:15:01.090Z,1.5
2018-06-02T21:16:01.282Z,1.3
2018-06-02T21:18:01.122Z,1.2
2018-06-02T21:19:01.087Z,1.1
2018-06-02T21:21:01.258Z,0.9
2018-06-02T21:23:01.092Z,0.8
2018-06-02T21:24:01.119Z,0.7
2018-06-02T21:26:01.309Z,0.6
2018-06-02T21:27:01.094Z,0.5
2018-06-02T21:29:01.119Z,0.4
2018-06-02T21:30:01.059Z,0.3
2018-06-02T21:32:01.239Z,0.2
2018-06-02T21:33:01.093Z,0.1
